Time;durP1;ratioP1;P1;durP2;ratioP2;P2;SDS_P1;SDS_P2;PMS_P1;PMS_P2;Temp;Humidity;BMP_temperature;BMP_pressure;BME280_temperature;BME280_humidity;BME280_pressure;Samples;Min_cycle;Max_cycle;Signal;HPM_P1;HPM_P2
2022/07/23 00:00:34;;;;;;;6.88;3.10;;;;;;;13.42;100.00;101948.53;5001526;28;22089;-76
2022/07/23 00:03:00;;;;;;;5.20;3.20;;;;;;;13.43;100.00;101947.63;5001670;28;20042;-75
2022/07/23 00:05:25;;;;;;;3.70;2.75;;;;;;;13.42;100.00;101948.53;5001643;28;20041;-76
2022/07/23 00:07:51;;;;;;;4.88;3.08;;;;;;;13.44;100.00;101949.34;5001715;28;20362;-76
2022/07/23 00:10:17;;;;;;;3.50;2.80;;;;;;;13.44;100.00;101943.16;5000424;28;21496;-77
2022/07/23 00:12:46;;;;;;;4.57;3.30;;;;;;;13.42;100.00;101945.88;4984041;28;20037;-77
2022/07/23 00:15:11;;;;;;;5.78;3.65;;;;;;;13.43;100.00;101950.28;5002314;28;20121;-77
2022/07/23 00:17:40;;;;;;;6.40;3.58;;;;;;;13.46;100.00;101953.78;5002137;28;20117;-76
2022/07/23 00:20:06;;;;;;;6.43;3.53;;;;;;;13.46;100.00;101943.13;5001724;28;20400;-76
2022/07/23 00:22:32;;;;;;;5.45;3.75;;;;;;;13.48;100.00;101946.59;5001969;28;20034;-77
2022/07/23 00:24:57;;;;;;;6.82;3.72;;;;;;;13.49;100.00;101945.66;5001565;28;20549;-78
2022/07/23 00:27:23;;;;;;;6.30;4.30;;;;;;;13.49;100.00;101943.00;5004688;28;20048;-77
2022/07/23 00:29:49;;;;;;;10.20;3.80;;;;;;;13.50;100.00;101947.41;5005535;28;20523;-77
2022/07/23 00:32:14;;;;;;;4.57;3.38;;;;;;;13.52;100.00;101940.22;4990056;28;21356;-77
2022/07/23 00:34:40;;;;;;;6.07;3.63;;;;;;;13.55;100.00;101945.41;5002671;28;20034;-77
2022/07/23 00:37:05;;;;;;;5.78;3.60;;;;;;;13.56;100.00;101934.72;5005621;28;20115;-77
2022/07/23 00:39:31;;;;;;;4.53;3.33;;;;;;;13.59;100.00;101931.06;5005128;28;20519;-76
2022/07/23 00:41:57;;;;;;;6.43;4.30;;;;;;;13.61;100.00;101937.19;5005147;28;20029;-77
2022/07/23 00:44:25;;;;;;;5.13;3.67;;;;;;;13.62;100.00;101933.59;5005110;28;20037;-77
2022/07/23 00:46:58;;;;;;;5.30;3.75;;;;;;;13.65;100.00;101941.47;5004971;28;20073;-77
2022/07/23 00:49:26;;;;;;;4.32;3.53;;;;;;;13.69;100.00;101939.53;5005110;28;20029;-79
2022/07/23 00:51:52;;;;;;;4.50;3.17;;;;;;;13.69;100.00;101937.72;4989567;28;20038;-76
2022/07/23 00:54:18;;;;;;;5.05;3.47;;;;;;;13.70;100.00;101927.97;5004829;28;20029;-77
2022/07/23 00:56:45;;;;;;;4.43;3.38;;;;;;;13.68;100.00;101925.34;5019906;28;20049;-77
2022/07/23 00:59:11;;;;;;;4.22;3.45;;;;;;;13.67;100.00;101928.94;5024854;28;20048;-76
2022/07/23 01:01:36;;;;;;;5.85;3.25;;;;;;;13.62;100.00;101925.59;5023629;28;20034;-76
2022/07/23 01:04:02;;;;;;;5.55;3.45;;;;;;;13.57;100.00;101923.13;5006674;28;20043;-77
2022/07/23 01:06:28;;;;;;;6.07;3.20;;;;;;;13.53;100.00;101920.66;5024926;28;20036;-77
2022/07/23 01:08:54;;;;;;;6.88;3.47;;;;;;;13.49;100.00;101914.59;5006009;28;20545;-77
2022/07/23 01:11:21;;;;;;;4.90;3.25;;;;;;;13.47;100.00;101918.25;5024329;28;20033;-77
2022/07/23 01:13:47;;;;;;;4.60;3.55;;;;;;;13.43;100.00;101909.50;5024772;28;20056;-75
2022/07/23 01:16:13;;;;;;;3.72;3.00;;;;;;;13.38;100.00;101915.00;5024290;28;20025;-76
2022/07/23 01:18:38;;;;;;;4.18;3.20;;;;;;;13.34;100.00;101918.72;5006599;28;20525;-76
2022/07/23 01:21:04;;;;;;;5.70;3.58;;;;;;;13.29;100.00;101918.06;5024375;28;20033;-77
2022/07/23 01:23:29;;;;;;;5.03;3.40;;;;;;;13.26;100.00;101908.41;5024506;28;20029;-76
2022/07/23 01:25:55;;;;;;;4.07;3.42;;;;;;;13.24;100.00;101914.72;5024130;28;20464;-76
2022/07/23 01:28:21;;;;;;;4.20;3.05;;;;;;;13.20;100.00;101913.97;5024145;28;20263;-76
2022/07/23 01:30:47;;;;;;;4.88;3.38;;;;;;;13.17;100.00;101919.38;5023879;28;21413;-77
2022/07/23 01:33:13;;;;;;;6.55;4.35;;;;;;;13.14;100.00;101907.06;5023902;28;20563;-76
2022/07/23 01:35:38;;;;;;;6.13;3.72;;;;;;;13.11;100.00;101911.66;5024252;28;20048;-76
2022/07/23 01:38:04;;;;;;;4.97;4.25;;;;;;;13.08;100.00;101907.31;5023755;28;20037;-76
2022/07/23 01:40:32;;;;;;;5.75;3.97;;;;;;;13.05;100.00;101907.44;5023958;28;20124;-75
2022/07/23 01:42:57;;;;;;;6.28;4.72;;;;;;;13.04;100.00;101909.22;5006812;28;20037;-76
2022/07/23 01:45:23;;;;;;;7.63;4.05;;;;;;;13.00;100.00;101902.31;5005926;28;20036;-77
2022/07/23 01:47:49;;;;;;;4.57;3.80;;;;;;;12.98;100.00;101901.50;5023596;28;20584;-77
2022/07/23 01:50:15;;;;;;;5.43;3.72;;;;;;;12.97;100.00;101901.56;5023960;28;20032;-77
2022/07/23 01:52:40;;;;;;;5.95;3.60;;;;;;;12.94;100.00;101896.34;5023741;28;20132;-77
2022/07/23 01:55:07;;;;;;;7.28;4.10;;;;;;;12.94;100.00;101893.69;5023319;28;20035;-77
2022/07/23 01:57:32;;;;;;;5.35;3.85;;;;;;;12.92;100.00;101892.91;5024124;28;20049;-76
2022/07/23 01:59:58;;;;;;;7.15;3.88;;;;;;;12.87;100.00;101896.59;5023664;28;20040;-76
2022/07/23 02:02:23;;;;;;;5.72;3.42;;;;;;;12.83;100.00;101900.31;5023576;28;20587;-76
2022/07/23 02:04:49;;;;;;;6.72;3.40;;;;;;;12.81;100.00;101896.81;5005717;28;20029;-76
2022/07/23 02:07:15;;;;;;;4.53;3.40;;;;;;;12.80;100.00;101896.91;5023802;28;20115;-76
2022/07/23 02:09:40;;;;;;;5.35;3.58;;;;;;;12.76;100.00;101890.84;4991139;28;20021;-77
2022/07/23 02:12:06;;;;;;;6.78;4.10;;;;;;;12.74;100.00;101890.00;5023418;28;20034;-76
2022/07/23 02:14:32;;;;;;;4.97;3.78;;;;;;;12.71;100.00;101882.16;5005475;28;20667;-76
2022/07/23 02:16:57;;;;;;;5.72;3.53;;;;;;;12.70;100.00;101883.09;5007217;28;20045;-76
2022/07/23 02:19:23;;;;;;;7.80;3.75;;;;;;;12.67;100.00;101883.19;5023299;28;20462;-77
2022/07/23 02:21:48;;;;;;;6.70;3.65;;;;;;;12.65;100.00;101870.00;5004949;28;20043;-77
2022/07/23 02:24:17;;;;;;;5.97;3.30;;;;;;;12.63;100.00;101872.69;5022796;28;20032;-78
2022/07/23 02:26:43;;;;;;;7.50;3.88;;;;;;;12.62;100.00;101867.44;5023317;28;20025;-78
2022/07/23 02:29:08;;;;;;;5.30;3.10;;;;;;;12.61;100.00;101874.56;5022898;28;20522;-77
2022/07/23 02:31:34;;;;;;;5.07;3.55;;;;;;;12.60;100.00;101878.09;5023327;28;20029;-78
2022/07/23 02:34:00;;;;;;;4.35;3.22;;;;;;;12.60;100.00;101877.25;5022706;28;20048;-77
2022/07/23 02:36:25;;;;;;;5.05;3.63;;;;;;;12.61;100.00;101881.66;5021704;28;20064;-77
2022/07/23 02:38:51;;;;;;;4.28;2.80;;;;;;;12.61;100.00;101879.88;5022871;28;21450;-77
2022/07/23 02:41:16;;;;;;;4.93;3.17;;;;;;;12.60;100.00;101882.56;5004852;28;20037;-78
2022/07/23 02:43:42;;;;;;;4.65;3.25;;;;;;;12.61;100.00;101882.53;5022887;28;20041;-76
2022/07/23 02:46:07;;;;;;;4.95;3.03;;;;;;;12.61;100.00;101879.88;5022717;28;20034;-78
2022/07/23 02:48:35;;;;;;;5.32;3.05;;;;;;;12.61;100.00;101877.22;5022269;28;20783;-77
2022/07/23 02:51:01;;;;;;;3.63;2.78;;;;;;;12.62;100.00;101883.38;5022427;28;20033;-79
2022/07/23 02:53:26;;;;;;;4.53;2.88;;;;;;;12.61;100.00;101873.69;5022661;28;20072;-76
2022/07/23 02:55:52;;;;;;;4.90;3.05;;;;;;;12.60;100.00;101885.22;5022139;28;20048;-76
2022/07/23 02:58:18;;;;;;;5.85;3.22;;;;;;;12.59;100.00;101891.47;5023018;28;20038;-77
2022/07/23 03:00:43;;;;;;;4.18;3.17;;;;;;;12.57;100.00;101886.22;5004728;28;20626;-77
2022/07/23 03:03:09;;;;;;;4.40;3.15;;;;;;;12.57;100.00;101890.63;5022666;28;20143;-78
2022/07/23 03:05:34;;;;;;;4.22;2.90;;;;;;;12.54;100.00;101883.69;5004506;28;20472;-76
2022/07/23 03:08:00;;;;;;;5.07;3.25;;;;;;;12.52;100.00;101890.81;5022831;28;20037;-76
2022/07/23 03:10:26;;;;;;;4.45;2.95;;;;;;;12.51;100.00;101899.72;5022566;28;20034;-77
2022/07/23 03:12:51;;;;;;;4.60;3.40;;;;;;;12.51;100.00;101897.06;5019986;28;20471;-77
2022/07/23 03:15:17;;;;;;;5.18;3.00;;;;;;;12.49;100.00;101890.94;5004594;28;20115;-77
2022/07/23 03:17:43;;;;;;;4.43;3.05;;;;;;;12.48;100.00;101891.88;5022255;28;20035;-77
2022/07/23 03:20:09;;;;;;;4.55;3.35;;;;;;;12.46;100.00;101891.03;5022335;28;20057;-77
2022/07/23 03:22:35;;;;;;;5.03;3.58;;;;;;;12.45;100.00;101897.28;5006342;28;20041;-76
2022/07/23 03:25:00;;;;;;;5.72;3.33;;;;;;;12.43;100.00;101893.81;5002913;28;20702;-77
2022/07/23 03:27:28;;;;;;;5.10;3.50;;;;;;;12.42;100.00;101890.28;5022243;28;20037;-77
2022/07/23 03:29:55;;;;;;;4.30;3.08;;;;;;;12.41;100.00;101882.41;5022468;28;20501;-77
2022/07/23 03:32:21;;;;;;;6.57;3.25;;;;;;;12.40;100.00;101891.25;5022072;28;20033;-77
2022/07/23 03:34:46;;;;;;;4.25;3.20;;;;;;;12.38;100.00;101888.69;5022853;28;20033;-76
2022/07/23 03:37:12;;;;;;;4.50;3.40;;;;;;;12.36;100.00;101893.16;5022376;28;20112;-76
2022/07/23 03:39:38;;;;;;;5.93;3.30;;;;;;;12.35;100.00;101902.06;5022245;28;20035;-77
2022/07/23 03:42:06;;;;;;;5.22;3.05;;;;;;;12.34;100.00;101897.66;5022086;28;20033;-77
2022/07/23 03:44:32;;;;;;;4.75;2.83;;;;;;;12.31;100.00;101890.69;5022002;28;20112;-76
2022/07/23 03:46:58;;;;;;;6.82;3.00;;;;;;;12.32;100.00;101896.88;5021662;28;20373;-77
2022/07/23 03:49:24;;;;;;;7.15;2.88;;;;;;;12.31;100.00;101897.78;5022207;28;20048;-77
2022/07/23 03:51:49;;;;;;;5.47;3.40;;;;;;;12.30;100.00;101896.03;5021728;28;20045;-77
2022/07/23 03:54:15;;;;;;;4.65;3.15;;;;;;;12.31;100.00;101898.66;5003556;28;20037;-77
2022/07/23 03:56:42;;;;;;;4.47;3.35;;;;;;;12.33;100.00;101896.78;5021580;28;20083;-77
2022/07/23 03:59:08;;;;;;;5.55;3.60;;;;;;;12.32;100.00;101900.38;5021836;28;20483;-77
2022/07/23 04:01:33;;;;;;;6.95;3.75;;;;;;;12.30;100.00;101896.91;5024917;28;20029;-78
2022/07/23 04:03:59;;;;;;;7.40;3.47;;;;;;;12.30;100.00;101902.22;4993838;28;20511;-77
2022/07/23 04:06:28;;;;;;;5.97;3.90;;;;;;;12.31;100.00;101898.66;5025756;28;20056;-78
2022/07/23 04:08:53;;;;;;;4.57;3.05;;;;;;;12.32;100.00;101894.22;5025683;28;20040;-76
2022/07/23 04:11:19;;;;;;;5.93;3.33;;;;;;;12.32;100.00;101904.84;5025336;28;20041;-78
2022/07/23 04:13:45;;;;;;;6.95;3.92;;;;;;;12.32;100.00;101900.38;5025055;28;20048;-77
2022/07/23 04:16:10;;;;;;;4.85;3.40;;;;;;;12.32;100.00;101899.53;5025525;28;20037;-77
2022/07/23 04:18:36;;;;;;;5.10;2.95;;;;;;;12.31;100.00;101898.66;5009445;28;20033;-77
2022/07/23 04:21:01;;;;;;;5.50;3.78;;;;;;;12.31;100.00;101893.34;5007847;28;20048;-77
2022/07/23 04:23:27;;;;;;;5.82;3.47;;;;;;;12.33;100.00;101902.09;5025706;28;20033;-77
2022/07/23 04:25:52;;;;;;;5.45;3.65;;;;;;;12.35;100.00;101897.63;5007881;28;20630;-77
2022/07/23 04:28:18;;;;;;;6.03;3.90;;;;;;;12.38;100.00;101899.31;5007742;28;20445;-77
2022/07/23 04:30:44;;;;;;;4.80;3.15;;;;;;;12.39;100.00;101901.03;5025557;28;20540;-77
2022/07/23 04:33:09;;;;;;;6.13;3.33;;;;;;;12.40;100.00;101900.09;5025701;28;20033;-77
2022/07/23 04:35:35;;;;;;;4.07;3.15;;;;;;;12.43;100.00;101901.78;5025293;28;20037;-77
2022/07/23 04:38:02;;;;;;;5.25;3.63;;;;;;;12.45;100.00;101903.47;5007048;28;20029;-76
2022/07/23 04:40:27;;;;;;;5.25;3.22;;;;;;;12.48;100.00;101897.19;5023596;28;20523;-77
2022/07/23 04:42:53;;;;;;;5.25;3.30;;;;;;;12.52;100.00;101900.59;5024806;28;20041;-76
2022/07/23 04:45:19;;;;;;;5.00;3.28;;;;;;;12.53;100.00;101904.97;5007091;28;20124;-77
2022/07/23 04:47:45;;;;;;;6.68;3.60;;;;;;;12.56;100.00;101900.41;5025413;28;20057;-77
2022/07/23 04:50:10;;;;;;;4.80;3.35;;;;;;;12.59;100.00;101902.94;5025461;28;20514;-77
2022/07/23 04:52:36;;;;;;;5.43;3.60;;;;;;;12.61;100.00;101900.25;5022440;28;20037;-77
2022/07/23 04:55:02;;;;;;;6.22;3.80;;;;;;;12.62;100.00;101897.53;5024690;28;20033;-77
2022/07/23 04:57:27;;;;;;;5.60;3.58;;;;;;;12.65;100.00;101901.00;5024834;28;20091;-76
2022/07/23 04:59:53;;;;;;;4.38;3.28;;;;;;;12.67;100.00;101910.66;5007274;28;20537;-77
2022/07/23 05:02:18;;;;;;;4.35;3.50;;;;;;;12.71;100.00;101908.72;5024810;28;20040;-77
2022/07/23 05:04:47;;;;;;;4.72;3.40;;;;;;;12.76;100.00;101909.44;5024352;28;20029;-77
2022/07/23 05:07:12;;;;;;;5.07;3.63;;;;;;;12.81;100.00;101914.56;5024635;28;20033;-77
2022/07/23 05:09:38;;;;;;;6.55;3.55;;;;;;;12.86;100.00;101907.31;5006683;28;20452;-77
2022/07/23 05:12:04;;;;;;;5.03;3.60;;;;;;;12.92;100.00;101906.19;5023595;28;21189;-77
2022/07/23 05:14:29;;;;;;;4.53;3.30;;;;;;;12.98;100.00;101908.59;5006295;28;20815;-77
2022/07/23 05:16:55;;;;;;;4.72;3.35;;;;;;;13.04;100.00;101916.34;4974096;28;20041;-77
2022/07/23 05:19:21;;;;;;;4.75;3.00;;;;;;;13.10;100.00;101908.13;5024729;28;20042;-77
2022/07/23 05:21:46;;;;;;;4.28;3.00;;;;;;;13.17;100.00;101917.59;5024792;28;20130;-76
2022/07/23 05:24:12;;;;;;;5.07;3.08;;;;;;;13.25;100.00;101927.91;5024119;28;20034;-76
2022/07/23 05:26:37;;;;;;;4.93;3.22;;;;;;;13.32;100.00;101928.56;5024167;28;20029;-77
2022/07/23 05:29:03;;;;;;;4.47;3.08;;;;;;;13.39;100.00;101918.53;5024718;28;20025;-77
2022/07/23 05:31:28;;;;;;;5.70;2.70;;;;;;;13.48;100.00;101920.88;4991275;28;20413;-77
2022/07/23 05:33:54;;;;;;;5.65;3.10;;;;;;;13.57;100.00;101922.28;5024594;28;20630;-77
2022/07/23 05:36:20;;;;;;;2.95;2.50;;;;;;;13.66;100.00;101924.56;5024348;28;20087;-77
2022/07/23 05:38:45;;;;;;;4.93;3.10;;;;;;;13.78;100.00;101917.00;4975342;28;20060;-76
2022/07/23 05:41:11;;;;;;;3.00;2.55;;;;;;;13.87;100.00;101919.25;5023198;28;20111;-77
2022/07/23 05:43:36;;;;;;;4.15;2.78;;;;;;;13.96;100.00;101916.19;5024219;28;20485;-78
2022/07/23 05:46:02;;;;;;;2.95;2.28;;;;;;;14.07;100.00;101917.56;5005423;28;20039;-77
2022/07/23 05:48:28;;;;;;;2.80;1.92;;;;;;;14.16;100.00;101922.47;5024014;28;20039;-77
2022/07/23 05:50:54;;;;;;;3.17;2.08;;;;;;;14.29;100.00;101927.25;5007933;28;20796;-78
2022/07/23 05:53:20;;;;;;;2.53;2.10;;;;;;;14.40;100.00;101925.00;5024483;28;20038;-77
2022/07/23 05:55:45;;;;;;;3.65;2.20;;;;;;;14.52;100.00;101915.59;5023451;28;20132;-79
2022/07/23 05:58:11;;;;;;;2.58;2.05;;;;;;;14.66;100.00;101922.97;5023648;28;20037;-76
2022/07/23 06:00:37;;;;;;;2.40;1.90;;;;;;;14.83;100.00;101922.22;5023699;28;20230;-78
2022/07/23 06:03:02;;;;;;;3.03;1.92;;;;;;;15.04;100.00;101927.47;5023880;28;20029;-77
2022/07/23 06:05:28;;;;;;;2.67;1.75;;;;;;;15.26;100.00;101932.63;5004552;28;20114;-79
2022/07/23 06:07:54;;;;;;;2.22;1.33;;;;;;;15.45;100.00;101924.63;5023431;28;20459;-78
2022/07/23 06:10:19;;;;;;;4.05;1.40;;;;;;;15.64;100.00;101914.84;5023299;28;20039;-78
2022/07/23 06:12:45;;;;;;;3.25;1.80;;;;;;;15.83;100.00;101929.00;5004064;28;20139;-79
2022/07/23 06:15:11;;;;;;;1.73;1.15;;;;;;;15.99;100.00;101925.56;5005084;28;20076;-78
2022/07/23 06:17:41;;;;;;;1.38;1.27;;;;;;;16.14;100.00;101929.25;5023659;28;20667;-78
2022/07/23 06:20:08;;;;;;;1.73;1.50;;;;;;;16.33;100.00;101928.31;5005688;28;20379;-78
2022/07/23 06:22:34;;;;;;;1.20;1.10;;;;;;;16.54;100.00;101935.19;5023001;28;20049;-78
2022/07/23 06:25:00;;;;;;;2.40;1.23;;;;;;;16.73;100.00;101930.63;4990236;28;20553;-78
2022/07/23 06:27:25;;;;;;;1.90;0.95;;;;;;;16.92;99.92;101936.72;5023456;28;20029;-78
2022/07/23 06:29:51;;;;;;;0.73;0.70;;;;;;;17.14;99.08;101923.97;5023135;28;20044;-82
2022/07/23 06:32:16;;;;;;;1.60;0.60;;;;;;;17.30;97.54;101929.31;5023370;28;20044;-78
2022/07/23 06:34:42;;;;;;;2.58;0.65;;;;;;;17.42;96.89;101925.94;5023263;28;20029;-78
2022/07/23 06:37:07;;;;;;;1.02;0.60;;;;;;;17.56;95.59;101924.28;5023219;28;20044;-78
2022/07/23 06:39:33;;;;;;;0.50;0.50;;;;;;;17.65;96.15;101929.09;5023367;28;20552;-78
2022/07/23 06:41:58;;;;;;;0.60;0.60;;;;;;;17.79;95.68;101928.28;5023010;28;20500;-77
2022/07/23 06:44:24;;;;;;;0.77;0.60;;;;;;;17.96;94.45;101937.13;5022785;28;20029;-78
2022/07/23 06:46:50;;;;;;;0.50;0.50;;;;;;;18.04;93.17;101934.88;5022638;28;20029;-77
2022/07/23 06:49:15;;;;;;;0.60;0.60;;;;;;;18.19;92.75;101930.41;5022973;28;20127;-76
2022/07/23 06:51:41;;;;;;;0.50;0.50;;;;;;;18.37;92.67;101932.94;5022256;28;20059;-77
2022/07/23 06:54:06;;;;;;;0.50;0.50;;;;;;;18.50;90.71;101935.72;5022610;28;20606;-77
2022/07/23 06:56:32;;;;;;;0.55;0.50;;;;;;;18.65;89.02;101939.25;5022361;28;20047;-76
2022/07/23 06:58:57;;;;;;;0.47;0.47;;;;;;;18.78;87.72;101942.91;5022749;28;20049;-77
2022/07/23 07:01:23;;;;;;;0.40;0.40;;;;;;;18.82;88.71;101941.75;4974280;28;20041;-78
2022/07/23 07:03:48;;;;;;;0.50;0.50;;;;;;;18.78;86.97;101944.75;5004365;28;21034;-77
2022/07/23 07:06:17;;;;;;;0.45;0.45;;;;;;;18.77;87.08;101951.91;5022266;28;20051;-78
2022/07/23 07:08:43;;;;;;;0.50;0.50;;;;;;;18.69;86.21;101955.06;5022825;28;20118;-78
2022/07/23 07:11:09;;;;;;;0.40;0.40;;;;;;;18.69;86.13;101956.91;5022686;28;20049;-77
2022/07/23 07:13:36;;;;;;;1.55;0.40;;;;;;;18.62;86.61;101961.78;5022458;28;20034;-78
2022/07/23 07:16:02;;;;;;;0.73;0.30;;;;;;;18.54;85.79;101958.72;5004098;28;20120;-77
2022/07/23 07:18:27;;;;;;;0.47;0.47;;;;;;;18.41;86.46;101958.63;5004826;28;20032;-78
2022/07/23 07:20:53;;;;;;;0.40;0.40;;;;;;;18.30;86.33;101956.59;5022156;28;20041;-77
2022/07/23 07:23:20;;;;;;;0.55;0.43;;;;;;;18.27;86.53;101957.63;5022162;28;20033;-77
2022/07/23 07:25:46;;;;;;;0.30;0.30;;;;;;;18.23;86.49;101952.53;5022424;28;20033;-78
2022/07/23 07:28:12;;;;;;;0.52;0.50;;;;;;;18.17;86.06;101957.34;5021944;28;20078;-78
2022/07/23 07:30:37;;;;;;;0.68;0.50;;;;;;;18.22;85.26;101973.13;5006641;28;20039;-78
2022/07/23 07:33:03;;;;;;;0.93;0.52;;;;;;;18.16;84.17;101969.00;5022137;28;20124;-78
2022/07/23 07:35:28;;;;;;;0.50;0.50;;;;;;;18.17;83.86;101973.41;5024699;28;20041;-78
2022/07/23 07:37:54;;;;;;;0.40;0.40;;;;;;;18.15;84.36;101971.78;5028359;28;20392;-77
2022/07/23 07:40:20;;;;;;;0.40;0.40;;;;;;;18.10;81.43;101979.22;4996425;28;20136;-76
2022/07/23 07:42:51;;;;;;;0.60;0.60;;;;;;;18.09;82.18;101975.66;5028708;28;20460;-77
2022/07/23 07:45:20;;;;;;;0.60;0.60;;;;;;;18.07;82.37;101979.41;5029148;28;20037;-77
2022/07/23 07:47:45;;;;;;;0.70;0.70;;;;;;;18.04;82.76;101983.94;5029061;28;20160;-78
2022/07/23 07:50:11;;;;;;;0.95;0.60;;;;;;;17.99;82.45;101986.06;5029250;28;20036;-77
2022/07/23 07:52:36;;;;;;;0.45;0.45;;;;;;;17.96;82.38;101990.69;5010610;28;20045;-78
2022/07/23 07:55:04;;;;;;;0.40;0.40;;;;;;;17.90;83.50;101995.50;5027995;28;20079;-76
2022/07/23 07:57:30;;;;;;;0.98;0.60;;;;;;;17.81;82.47;101993.31;5027703;28;20047;-78
2022/07/23 07:59:55;;;;;;;1.33;0.50;;;;;;;17.75;82.49;101994.56;5028535;28;20037;-77
2022/07/23 08:02:21;;;;;;;0.50;0.50;;;;;;;17.67;81.70;101995.94;5010019;28;20620;-78
2022/07/23 08:04:47;;;;;;;0.40;0.40;;;;;;;17.64;82.15;101999.66;5028191;28;20029;-77
2022/07/23 08:07:12;;;;;;;0.50;0.50;;;;;;;17.63;81.50;102005.97;5012510;28;20033;-76
2022/07/23 08:09:38;;;;;;;0.43;0.40;;;;;;;17.62;81.29;102004.25;5028552;28;20037;-77
2022/07/23 08:12:04;;;;;;;1.02;0.50;;;;;;;17.61;81.18;102002.53;5028338;28;20041;-76
2022/07/23 08:14:29;;;;;;;0.40;0.40;;;;;;;17.59;80.40;102009.78;5028713;28;20431;-78
2022/07/23 08:16:55;;;;;;;0.65;0.50;;;;;;;17.56;81.27;102004.59;5028422;28;20472;-78
2022/07/23 08:19:20;;;;;;;0.85;0.60;;;;;;;17.49;81.02;102010.28;5010758;28;20506;-77
2022/07/23 08:21:46;;;;;;;1.05;0.50;;;;;;;17.45;81.29;102007.88;5028551;28;20059;-76
2022/07/23 08:24:17;;;;;;;1.40;0.63;;;;;;;17.42;81.41;102008.91;5028706;28;20117;-77
2022/07/23 08:26:50;;;;;;;0.57;0.57;;;;;;;17.45;80.88;102018.59;5010389;28;20025;-77
2022/07/23 08:29:15;;;;;;;1.85;0.57;;;;;;;17.46;81.05;102017.63;5010239;28;20083;-77
2022/07/23 08:31:42;;;;;;;0.60;0.60;;;;;;;17.44;81.29;102030.25;5028216;28;20172;-77
2022/07/23 08:34:07;;;;;;;0.50;0.50;;;;;;;17.43;81.64;102032.06;5027676;28;20127;-78
2022/07/23 08:36:33;;;;;;;0.98;0.70;;;;;;;17.40;81.55;102021.53;5028229;28;20040;-79
2022/07/23 08:38:59;;;;;;;1.27;0.60;;;;;;;17.38;81.92;102028.78;5028157;28;20511;-78
2022/07/23 08:41:25;;;;;;;0.60;0.60;;;;;;;17.32;81.88;102034.47;5028401;28;20064;-77
2022/07/23 08:43:54;;;;;;;1.55;0.60;;;;;;;17.26;81.38;102034.81;5027945;28;20040;-77
2022/07/23 08:46:20;;;;;;;1.42;0.60;;;;;;;17.24;81.72;102025.06;4992847;28;20048;-77
2022/07/23 08:48:48;;;;;;;0.45;0.45;;;;;;;17.26;81.74;102018.75;5024344;28;20057;-77
2022/07/23 08:51:17;;;;;;;0.60;0.60;;;;;;;17.28;81.93;102027.56;5023195;28;20225;-77
2022/07/23 08:53:46;;;;;;;1.58;0.70;;;;;;;17.29;82.14;102018.56;5024859;28;20087;-77
2022/07/23 08:56:12;;;;;;;0.88;0.60;;;;;;;17.30;82.33;102025.66;4977283;28;20093;-79
2022/07/23 08:58:37;;;;;;;0.60;0.60;;;;;;;17.31;81.62;102028.25;5024899;28;20123;-79
2022/07/23 09:01:03;;;;;;;0.60;0.60;;;;;;;17.33;81.98;102023.66;4992702;28;20047;-78
2022/07/23 09:03:31;;;;;;;0.68;0.68;;;;;;;17.35;81.55;102026.28;5005070;28;20037;-77
2022/07/23 09:05:58;;;;;;;1.00;0.60;;;;;;;17.38;81.25;102026.13;5024683;28;20090;-77
2022/07/23 09:08:33;;;;;;;0.63;0.60;;;;;;;17.38;81.16;102018.94;5024552;28;20080;-78
2022/07/23 09:11:02;;;;;;;0.90;0.63;;;;;;;17.42;81.23;102033.00;5023847;28;20395;-77
2022/07/23 09:13:33;;;;;;;0.70;0.70;;;;;;;17.49;81.63;102020.16;5024434;28;20049;-76
2022/07/23 09:16:20;;;;;;;0.60;0.60;;;;;;;17.57;80.02;102023.25;5024331;28;20029;-81
2022/07/23 09:18:53;;;;;;;1.20;0.63;;;;;;;17.59;80.35;102021.34;5006209;28;20037;-78
2022/07/23 09:21:29;;;;;;;1.95;0.60;;;;;;;17.61;80.68;102022.13;5024681;28;20048;-79
2022/07/23 09:23:57;;;;;;;0.63;0.63;;;;;;;17.60;80.58;102032.94;5023894;28;20045;-79
2022/07/23 09:26:30;;;;;;;0.50;0.50;;;;;;;17.58;80.46;102029.47;5023694;28;20029;-76
2022/07/23 09:28:58;;;;;;;0.65;0.65;;;;;;;17.56;80.98;102026.88;5024138;28;20044;-79
2022/07/23 09:31:25;;;;;;;1.13;0.70;;;;;;;17.58;81.76;102024.09;5024406;28;20060;-79
2022/07/23 09:33:51;;;;;;;1.17;0.60;;;;;;;17.63;81.52;102020.22;5023917;28;20028;-78
2022/07/23 09:36:27;;;;;;;1.65;1.55;;;;;;;17.71;81.28;102021.59;4989181;28;20474;-76
2022/07/23 09:38:53;;;;;;;0.60;0.60;;;;;;;17.76;80.49;102027.56;5006613;28;20111;-77
2022/07/23 09:41:21;;;;;;;0.63;0.63;;;;;;;17.88;81.53;102026.00;4992907;28;20032;-77
2022/07/23 09:43:46;;;;;;;1.00;0.65;;;;;;;17.98;81.35;102013.78;5024185;28;20030;-78
2022/07/23 09:46:24;;;;;;;0.57;0.57;;;;;;;18.27;81.73;102023.75;4991744;28;20030;-79
2022/07/23 09:48:51;;;;;;;0.65;0.65;;;;;;;18.46;81.17;102015.47;5006068;28;20104;-77
2022/07/23 09:51:38;;;;;;;0.70;0.70;;;;;;;18.62;80.51;102023.44;5023688;28;20021;-78
2022/07/23 09:54:03;;;;;;;1.23;1.13;;;;;;;18.71;80.18;102025.59;5023413;28;20601;-79
2022/07/23 09:56:29;;;;;;;1.52;0.80;;;;;;;18.81;79.94;102025.88;5023399;28;20068;-79
2022/07/23 09:59:06;;;;;;;2.03;1.30;;;;;;;18.93;79.33;102026.06;5023184;28;20068;-78
2022/07/23 10:01:32;;;;;;;0.82;0.80;;;;;;;18.97;79.59;102024.91;5023521;28;20049;-78
2022/07/23 10:03:58;;;;;;;1.25;0.75;;;;;;;19.05;79.04;102028.00;4991714;28;20037;-78
2022/07/23 10:06:24;;;;;;;1.55;0.80;;;;;;;19.05;78.45;102030.69;4999404;28;20049;-77
2022/07/23 10:08:51;;;;;;;2.25;1.00;;;;;;;19.02;78.62;102027.31;4974769;28;20033;-78
2022/07/23 10:11:19;;;;;;;0.70;0.70;;;;;;;18.98;78.41;102032.00;5006076;28;20037;-79
2022/07/23 10:14:04;;;;;;;0.90;0.70;;;;;;;18.99;79.15;102039.09;5022856;28;20463;-78
2022/07/23 10:16:30;;;;;;;1.52;0.90;;;;;;;19.00;79.08;102028.28;5004991;28;20411;-77
2022/07/23 10:18:55;;;;;;;1.80;0.90;;;;;;;19.14;79.35;102031.94;5005463;28;20032;-77
2022/07/23 10:21:41;;;;;;;0.80;0.80;;;;;;;19.20;77.55;102028.88;5024088;28;20036;-78
2022/07/23 10:24:08;;;;;;;1.00;0.90;;;;;;;19.20;77.95;102034.22;5022909;28;20039;-78
2022/07/23 10:26:41;;;;;;;1.17;0.85;;;;;;;19.24;78.36;102037.59;4990817;28;20037;-79
2022/07/23 10:29:19;;;;;;;1.10;0.90;;;;;;;19.22;76.50;102034.13;5021828;28;20124;-78
2022/07/23 10:31:58;;;;;;;0.80;0.80;;;;;;;19.21;77.13;102038.63;5023177;28;20042;-78
2022/07/23 10:34:52;;;;;;;0.80;0.80;;;;;;;19.21;76.44;102045.81;4973702;28;20029;-76
2022/07/23 10:37:25;;;;;;;1.35;0.82;;;;;;;19.31;78.17;102038.91;5004560;28;20163;-78
2022/07/23 10:40:10;;;;;;;1.10;1.00;;;;;;;19.36;76.13;102042.19;5006917;28;20040;-79
2022/07/23 10:42:36;;;;;;;1.13;0.98;;;;;;;19.38;77.58;102034.00;5004191;28;20386;-77
2022/07/23 10:45:33;;;;;;;1.23;1.13;;;;;;;19.45;76.41;102029.97;5004619;28;20088;-77
2022/07/23 10:48:18;;;;;;;1.10;1.00;;;;;;;19.53;77.43;102026.78;5022687;28;20045;-78
2022/07/23 10:51:16;;;;;;;2.10;1.40;;;;;;;19.63;77.26;102027.03;5022526;28;20533;-78
2022/07/23 10:53:51;;;;;;;1.20;1.05;;;;;;;19.86;76.69;102038.09;5022618;28;20034;-78
2022/07/23 10:56:35;;;;;;;0.80;0.80;;;;;;;19.99;76.78;102035.50;5021884;28;20099;-78
2022/07/23 10:59:04;;;;;;;1.25;0.93;;;;;;;20.16;76.22;102040.59;5022736;28;20132;-78
2022/07/23 11:01:37;;;;;;;1.13;1.02;;;;;;;20.31;75.30;102037.81;5022652;28;20033;-78
2022/07/23 11:04:07;;;;;;;1.55;1.10;;;;;;;20.31;75.35;102038.69;5022141;28;20127;-77
2022/07/23 11:06:47;;;;;;;2.85;1.20;;;;;;;20.33;74.82;102033.22;5022511;28;20033;-78
2022/07/23 11:09:29;;;;;;;1.55;1.30;;;;;;;20.34;75.38;102030.44;5022390;28;20053;-79
2022/07/23 11:12:21;;;;;;;1.33;1.23;;;;;;;20.31;74.66;102035.13;4987843;28;20066;-77
2022/07/23 11:15:08;;;;;;;1.45;1.23;;;;;;;20.25;75.11;102022.13;4994149;28;20064;-78
2022/07/23 11:17:43;;;;;;;3.67;1.10;;;;;;;20.21;75.88;102032.22;5022117;28;20587;-78
2022/07/23 11:20:08;;;;;;;1.30;1.10;;;;;;;20.32;76.20;102026.97;5022054;28;20029;-79
2022/07/23 11:22:38;;;;;;;1.20;1.10;;;;;;;20.41;76.03;102022.78;5022410;28;20036;-78